Ashland Rgnl Information

FAA: DWU - ICAO: KDWU

Ashland Rgnl (Airport) Location

State Kentucky
County Greenup
City Ashland
Ashland Rgnl (Airport) is 6 miles northwest of Ashland, KY.
Latitude 38-33-16.0590N
Longitude 082-44-15.5830W
Elevation 546ft

Ashland Rgnl METARs

METAR KDWU 301856Z AUTO VRB06KT 10SM CLR 13/02 A3003 RMK AO2 SLP170 T01280022
Altimeter 30.03"
Temperature 12.8°C (55.0°F)
Wind 0° at 6KT
Clouds Skies are clear.
Visibility 10.0mi
Time observed: 2021-11-30T18:56:00Z

Ashland Rgnl (Airport) Details

Status Operational
Activation October 1948
Ownership Public
Usage Public
Chart CINCINNATI
ATC on-site No
Beacon schedule sunset-sunrise
Beacon color clear green

Ashland Rgnl (Airport) Contacts

Owner ASHLAND REGIONAL AIRPORT BOARD
Owner address 501 SCOTT ST, WORTHINGTON, KY 41183
Owner phone (606) 232-1469
Manager TIMOTHY A. CHANAY
Manager address 738 JACKSON ROAD, POMONA, KS 66076
Manager phone 913-746-5496

Ashland Rgnl Radio Frequencies

Ashland Rgnl (Airport) Radio Frequencies

UNICOM 122.8
Common traffic advisory frequency (CTAF) 122.8